• Join FlightAware (Why Join?)
  • Login
  • US Flag 
12:29PM EST


 

Airport Tracker/Info


-or-


 

Live Flight TrackerFlight Track Log ✈ BHR29 ✈ 05-Apr-2014 ✈ KCPR - KSHR

Flight Track Log - Related Links

Times and Time Zones

All times are in EDT time to prevent confusion due to time zone crossing. See the BHR29 flight status page for this flight to view local times or setup timezone preferences in your user account.

Time Position Orientation Groundspeed Altitude Reporting Facility
EDT Latitude Longitude Course Direction KTS MPH feet Rate Location/Type
11:28PM 42.9611 -106.4589 47° Northeast 172 198 11,400  Level Denver Center
11:29PM 42.9969 -106.4169 41° Northeast 173 199 12,900 1,560 Climbing Denver Center
11:30PM 43.0497 -106.4314 349° North 177 204 14,600 1,440 Climbing Denver Center
11:31PM 43.0933 -106.4467 346° North 171 197 15,900 660 Climbing Denver Center
11:32PM 43.2550 -106.5176 352° North  Level FlightAware Approximate
11:32PM 43.1439 -106.4525 355° North 182 209 16,000  Level Denver Center
11:33PM 43.2131 -106.4667 352° North 217 250 16,000  Level Denver Center
11:34PM 43.2675 -106.4769 352° North 212 244 16,000  Level Denver Center
11:35PM 43.3125 -106.5031 337° Northwest 195 224 16,000  Level Denver Center
11:36PM 43.3694 -106.5347 338° Northwest 194 223 16,000  Level Denver Center
11:37PM 43.4231 -106.5419 354° North 196 226 16,000  Level Denver Center
11:38PM 43.4808 -106.5525 352° North 212 244 16,000  Level Denver Center
11:39PM 43.5472 -106.5667 351° North 215 247 16,000 -60 Level Denver Center
11:40PM 43.6047 -106.5750 354° North 216 249 15,900  Descending Denver Center
11:41PM 43.6536 -106.5775 358° North 193 222 16,000  Climbing Denver Center
11:42PM 43.7119 -106.5869 353° North 190 219 16,000 -60 Level Denver Center
11:43PM 43.7669 -106.6006 350° North 204 235 15,900  Descending Denver Center
11:44PM 43.8300 -106.6108 353° North 227 261 16,000  Climbing Denver Center
11:45PM 43.9039 -106.6203 355° North 234 269 16,000  Level Denver Center
11:46PM 43.9597 -106.6286 354° North 221 254 16,000 -300 Level Denver Center
11:47PM 44.0106 -106.6406 350° North 204 235 15,500 -660 Descending Denver Center
11:48PM 44.0756 -106.6550 351° North 206 237 14,700 -840 Descending Denver Center
11:49PM 44.1319 -106.6683 350° North 210 242 13,900 -780 Descending Denver Center
11:50PM 44.1867 -106.6781 353° North 210 242 13,200 -840 Descending Denver Center
11:51PM 44.2478 -106.6853 355° North 204 235 12,300 -840 Descending Denver Center
11:52PM 44.3006 -106.6894 357° North 202 232 11,600 -720 Descending Denver Center
11:54PM 44.3776 -106.7082 332° Northwest  Level FlightAware Approximate
12:01AM 44.7667 -106.9667 340° North  Level FlightAware Approximate
12:02AM 44.7692 -106.9803 340° North  Level Estimated
12:03AM 44.7692 -106.9803 340° North  Level Estimated